sensor_id;sensor_type;location;lat;lon;timestamp;pressure;altitude;pressure_sealevel;temperature
8533;BMP280;4304;53.876;10.662;2022-12-07T00:05:12;109098.03;;;-139.81
8533;BMP280;4304;53.876;10.662;2022-12-07T00:07:38;109100.03;;;-139.81
8533;BMP280;4304;53.876;10.662;2022-12-07T00:10:03;109144.56;;;-139.81
8533;BMP280;4304;53.876;10.662;2022-12-07T00:12:29;109227.53;;;-139.81
8533;BMP280;4304;53.876;10.662;2022-12-07T00:14:54;109160.75;;;-139.81
8533;BMP280;4304;53.876;10.662;2022-12-07T00:17:19;109231.59;;;-139.81
8533;BMP280;4304;53.876;10.662;2022-12-07T00:19:44;109237.66;;;-139.81
8533;BMP280;4304;53.876;10.662;2022-12-07T00:22:09;109288.25;;;-139.81
8533;BMP280;4304;53.876;10.662;2022-12-07T00:24:35;109304.44;;;-139.81
8533;BMP280;4304;53.876;10.662;2022-12-07T00:27:00;109359.09;;;-139.81
8533;BMP280;4304;53.876;10.662;2022-12-07T00:29:25;109357.06;;;-139.81
8533;BMP280;4304;53.876;10.662;2022-12-07T00:31:50;109355.03;;;-139.81
8533;BMP280;4304;53.876;10.662;2022-12-07T00:34:20;109571.63;;;-139.81
8533;BMP280;4304;53.876;10.662;2022-12-07T00:36:46;109417.78;;;-139.81
8533;BMP280;4304;53.876;10.662;2022-12-07T00:39:12;109464.34;;;-139.81
8533;BMP280;4304;53.876;10.662;2022-12-07T00:41:37;109458.28;;;-139.81
8533;BMP280;4304;53.876;10.662;2022-12-07T00:44:02;109484.59;;;-139.81
8533;BMP280;4304;53.876;10.662;2022-12-07T00:46:28;109500.78;;;-139.81
8533;BMP280;4304;53.876;10.662;2022-12-07T00:48:54;109478.50;;;-139.81
8533;BMP280;4304;53.876;10.662;2022-12-07T00:51:22;109492.69;;;-139.81
8533;BMP280;4304;53.876;10.662;2022-12-07T00:53:47;109458.28;;;-139.81
8533;BMP280;4304;53.876;10.662;2022-12-07T00:56:25;109527.09;;;-139.81
8533;BMP280;4304;53.876;10.662;2022-12-07T00:58:56;109492.69;;;-139.81
8533;BMP280;4304;53.876;10.662;2022-12-07T01:01:24;109512.91;;;-139.81
8533;BMP280;4304;53.876;10.662;2022-12-07T01:03:50;109525.06;;;-139.81
8533;BMP280;4304;53.876;10.662;2022-12-07T01:06:17;109610.06;;;-139.81
8533;BMP280;4304;53.876;10.662;2022-12-07T01:08:43;109559.47;;;-139.81
8533;BMP280;4304;53.876;10.662;2022-12-07T01:11:11;109579.72;;;-139.81
8533;BMP280;4304;53.876;10.662;2022-12-07T01:13:57;109610.06;;;-139.81
8533;BMP280;4304;53.876;10.662;2022-12-07T01:16:24;109545.31;;;-139.81
8533;BMP280;4304;53.876;10.662;2022-12-07T01:19:02;109626.28;;;-139.81
8533;BMP280;4304;53.876;10.662;2022-12-07T01:21:30;109529.13;;;-139.81
8533;BMP280;4304;53.876;10.662;2022-12-07T01:23:57;109521.00;;;-139.81
8533;BMP280;4304;53.876;10.662;2022-12-07T01:26:24;109464.34;;;-139.81
8533;BMP280;4304;53.876;10.662;2022-12-07T01:28:50;109355.03;;;-139.81
8533;BMP280;4304;53.876;10.662;2022-12-07T01:31:19;109346.94;;;-139.81
8533;BMP280;4304;53.876;10.662;2022-12-07T01:33:48;109367.19;;;-139.81
8533;BMP280;4304;53.876;10.662;2022-12-07T01:36:19;109409.69;;;-139.81
8533;BMP280;4304;53.876;10.662;2022-12-07T01:38:47;109417.78;;;-139.81
8533;BMP280;4304;53.876;10.662;2022-12-07T01:41:13;109444.09;;;-139.81
8533;BMP280;4304;53.876;10.662;2022-12-07T01:46:33;109608.06;;;-139.81
8533;BMP280;4304;53.876;10.662;2022-12-07T01:48:59;109597.94;;;-139.81
8533;BMP280;4304;53.876;10.662;2022-12-07T01:51:25;109723.44;;;-139.81
8533;BMP280;4304;53.876;10.662;2022-12-07T01:53:52;109741.66;;;-139.81
8533;BMP280;4304;53.876;10.662;2022-12-07T01:56:19;109772.00;;;-139.81
8533;BMP280;4304;53.876;10.662;2022-12-07T01:58:45;109844.88;;;-139.81
8533;BMP280;4304;53.876;10.662;2022-12-07T02:01:11;109804.41;;;-139.81
8533;BMP280;4304;53.876;10.662;2022-12-07T02:03:41;109905.63;;;-139.81
8533;BMP280;4304;53.876;10.662;2022-12-07T02:06:08;109820.59;;;-139.81
8533;BMP280;4304;53.876;10.662;2022-12-07T02:08:35;109887.41;;;-139.81
8533;BMP280;4304;53.876;10.662;2022-12-07T02:11:02;109899.53;;;-139.81
8533;BMP280;4304;53.876;10.662;2022-12-07T02:13:31;109911.69;;;-139.81
8533;BMP280;4304;53.876;10.662;2022-12-07T02:16:03;109869.19;;;-139.81
8533;BMP280;4304;53.876;10.662;2022-12-07T02:29:25;110002.78;;;-139.81
8533;BMP280;4304;53.876;10.662;2022-12-07T02:32:07;109990.63;;;-139.81
8533;BMP280;4304;53.876;10.662;2022-12-07T02:35:04;110114.13;;;-139.81
8533;BMP280;4304;53.876;10.662;2022-12-07T02:37:53;109982.53;;;-139.81
8533;BMP280;4304;53.876;10.662;2022-12-07T02:40:31;109998.75;;;-139.81
8533;BMP280;4304;53.876;10.662;2022-12-07T02:43:08;109938.00;;;-139.81
8533;BMP280;4304;53.876;10.662;2022-12-07T02:45:37;109984.56;;;-139.81
8533;BMP280;4304;53.876;10.662;2022-12-07T02:48:05;109919.78;;;-139.81
8533;BMP280;4304;53.876;10.662;2022-12-07T02:50:31;109852.97;;;-139.81
8533;BMP280;4304;53.876;10.662;2022-12-07T02:52:56;109852.97;;;-139.81
8533;BMP280;4304;53.876;10.662;2022-12-07T02:55:28;109919.78;;;-139.81
8533;BMP280;4304;53.876;10.662;2022-12-07T03:00:26;109950.16;;;-139.81
8533;BMP280;4304;53.876;10.662;2022-12-07T03:03:01;109875.25;;;-139.81
8533;BMP280;4304;53.876;10.662;2022-12-07T03:05:44;110000.75;;;-139.81
8533;BMP280;4304;53.876;10.662;2022-12-07T03:08:37;109958.25;;;-139.81
8533;BMP280;4304;53.876;10.662;2022-12-07T03:11:06;109855.00;;;-139.81
8533;BMP280;4304;53.876;10.662;2022-12-07T03:13:35;109873.22;;;-139.81
8533;BMP280;4304;53.876;10.662;2022-12-07T03:18:38;109832.75;;;-139.81
8533;BMP280;4304;53.876;10.662;2022-12-07T03:21:11;109881.31;;;-139.81
8533;BMP280;4304;53.876;10.662;2022-12-07T03:23:38;109800.34;;;-139.81
8533;BMP280;4304;53.876;10.662;2022-12-07T03:26:13;109846.91;;;-139.81
8533;BMP280;4304;53.876;10.662;2022-12-07T03:28:42;109780.09;;;-139.81
8533;BMP280;4304;53.876;10.662;2022-12-07T03:31:17;109790.22;;;-139.81
8533;BMP280;4304;53.876;10.662;2022-12-07T03:33:51;109763.91;;;-139.81
8533;BMP280;4304;53.876;10.662;2022-12-07T03:39:36;109859.06;;;-139.81
8533;BMP280;4304;53.876;10.662;2022-12-07T03:42:05;109745.69;;;-139.81
8533;BMP280;4304;53.876;10.662;2022-12-07T03:44:32;109727.47;;;-139.81
8533;BMP280;4304;53.876;10.662;2022-12-07T03:47:04;109780.09;;;-139.81
8533;BMP280;4304;53.876;10.662;2022-12-07T03:54:56;109717.38;;;-139.81
8533;BMP280;4304;53.876;10.662;2022-12-07T03:57:25;109715.34;;;-139.81
8533;BMP280;4304;53.876;10.662;2022-12-07T03:59:54;109711.28;;;-139.81
8533;BMP280;4304;53.876;10.662;2022-12-07T04:05:23;109545.31;;;-139.81
8533;BMP280;4304;53.876;10.662;2022-12-07T04:07:48;109545.31;;;-139.81
8533;BMP280;4304;53.876;10.662;2022-12-07T04:10:13;109472.44;;;-139.81
8533;BMP280;4304;53.876;10.662;2022-12-07T04:12:38;109504.81;;;-139.81
8533;BMP280;4304;53.876;10.662;2022-12-07T04:15:04;109448.16;;;-139.81
8533;BMP280;4304;53.876;10.662;2022-12-07T04:17:30;109425.88;;;-139.81
8533;BMP280;4304;53.876;10.662;2022-12-07T04:19:55;109492.69;;;-139.81
8533;BMP280;4304;53.876;10.662;2022-12-07T04:22:20;109401.59;;;-139.81
8533;BMP280;4304;53.876;10.662;2022-12-07T04:24:45;109342.91;;;-139.81
8533;BMP280;4304;53.876;10.662;2022-12-07T04:27:11;109203.25;;;-139.81
8533;BMP280;4304;53.876;10.662;2022-12-07T04:29:36;109302.44;;;-139.81
8533;BMP280;4304;53.876;10.662;2022-12-07T04:32:01;109193.13;;;-139.81
8533;BMP280;4304;53.876;10.662;2022-12-07T04:34:26;109158.72;;;-139.81
8533;BMP280;4304;53.876;10.662;2022-12-07T04:36:52;109162.78;;;-139.81
8533;BMP280;4304;53.876;10.662;2022-12-07T04:39:34;109219.44;;;-139.81
8533;BMP280;4304;53.876;10.662;2022-12-07T04:42:00;109071.72;;;-139.81
8533;BMP280;4304;53.876;10.662;2022-12-07T04:44:27;109055.50;;;-139.81
8533;BMP280;4304;53.876;10.662;2022-12-07T04:46:52;109069.69;;;-139.81
8533;BMP280;4304;53.876;10.662;2022-12-07T04:49:19;109000.88;;;-139.81
8533;BMP280;4304;53.876;10.662;2022-12-07T04:51:45;108974.56;;;-139.81
8533;BMP280;4304;53.876;10.662;2022-12-07T04:54:11;109002.91;;;-139.81
8533;BMP280;4304;53.876;10.662;2022-12-07T04:56:47;109035.28;;;-139.81
8533;BMP280;4304;53.876;10.662;2022-12-07T04:59:14;108946.25;;;-139.81
8533;BMP280;4304;53.876;10.662;2022-12-07T05:01:39;108913.84;;;-139.81
8533;BMP280;4304;53.876;10.662;2022-12-07T05:04:05;108976.59;;;-139.81
8533;BMP280;4304;53.876;10.662;2022-12-07T05:06:30;108901.72;;;-139.81
8533;BMP280;4304;53.876;10.662;2022-12-07T05:08:55;108836.97;;;-139.81
8533;BMP280;4304;53.876;10.662;2022-12-07T05:11:21;108766.13;;;-139.81
8533;BMP280;4304;53.876;10.662;2022-12-07T05:13:46;108675.06;;;-139.81
8533;BMP280;4304;53.876;10.662;2022-12-07T05:16:11;108715.53;;;-139.81
8533;BMP280;4304;53.876;10.662;2022-12-07T05:18:36;108630.56;;;-139.81
8533;BMP280;4304;53.876;10.662;2022-12-07T05:21:01;108735.78;;;-139.81
8533;BMP280;4304;53.876;10.662;2022-12-07T05:23:27;108826.84;;;-139.81
8533;BMP280;4304;53.876;10.662;2022-12-07T05:25:52;108820.78;;;-139.81
8533;BMP280;4304;53.876;10.662;2022-12-07T05:28:17;108751.97;;;-139.81
8533;BMP280;4304;53.876;10.662;2022-12-07T05:30:42;108772.22;;;-139.81
8533;BMP280;4304;53.876;10.662;2022-12-07T05:33:07;108638.66;;;-139.81
8533;BMP280;4304;53.876;10.662;2022-12-07T05:35:33;108553.66;;;-139.81
8533;BMP280;4304;53.876;10.662;2022-12-07T05:37:58;108505.09;;;-139.81
8533;BMP280;4304;53.876;10.662;2022-12-07T05:40:29;108626.50;;;-139.81
8533;BMP280;4304;53.876;10.662;2022-12-07T05:42:54;108513.19;;;-139.81
8533;BMP280;4304;53.876;10.662;2022-12-07T05:45:20;108480.81;;;-139.81
8533;BMP280;4304;53.876;10.662;2022-12-07T05:47:45;108541.53;;;-139.81
8533;BMP280;4304;53.876;10.662;2022-12-07T05:50:10;108476.78;;;-139.81
8533;BMP280;4304;53.876;10.662;2022-12-07T05:52:35;108472.75;;;-139.81
8533;BMP280;4304;53.876;10.662;2022-12-07T05:55:01;108470.72;;;-139.81
8533;BMP280;4304;53.876;10.662;2022-12-07T05:57:26;108484.88;;;-139.81
8533;BMP280;4304;53.876;10.662;2022-12-07T05:59:51;108525.34;;;-139.81
8533;BMP280;4304;53.876;10.662;2022-12-07T06:02:17;108484.88;;;-139.81
8533;BMP280;4304;53.876;10.662;2022-12-07T06:04:44;108484.88;;;-139.81
8533;BMP280;4304;53.876;10.662;2022-12-07T06:07:11;108519.28;;;-139.81
8533;BMP280;4304;53.876;10.662;2022-12-07T06:09:37;108577.94;;;-139.81
8533;BMP280;4304;53.876;10.662;2022-12-07T06:12:03;108543.56;;;-139.81
8533;BMP280;4304;53.876;10.662;2022-12-07T06:14:28;108535.47;;;-139.81
8533;BMP280;4304;53.876;10.662;2022-12-07T06:16:54;108602.22;;;-139.81
8533;BMP280;4304;53.876;10.662;2022-12-07T06:19:39;108586.03;;;-139.81
8533;BMP280;4304;53.876;10.662;2022-12-07T06:22:05;108525.34;;;-139.81
8533;BMP280;4304;53.876;10.662;2022-12-07T06:24:33;108571.88;;;-139.81
8533;BMP280;4304;53.876;10.662;2022-12-07T06:26:59;108521.28;;;-139.81
8533;BMP280;4304;53.876;10.662;2022-12-07T06:29:25;108497.00;;;-139.81
8533;BMP280;4304;53.876;10.662;2022-12-07T06:31:50;108529.38;;;-139.81
8533;BMP280;4304;53.876;10.662;2022-12-07T06:34:20;108511.19;;;-139.81
8533;BMP280;4304;53.876;10.662;2022-12-07T06:36:46;108535.47;;;-139.81
8533;BMP280;4304;53.876;10.662;2022-12-07T06:39:12;108397.88;;;-139.81
8533;BMP280;4304;53.876;10.662;2022-12-07T06:41:38;108462.63;;;-139.81
8533;BMP280;4304;53.876;10.662;2022-12-07T06:44:06;108616.41;;;-139.81
8533;BMP280;4304;53.876;10.662;2022-12-07T06:46:36;108551.66;;;-139.81
8533;BMP280;4304;53.876;10.662;2022-12-07T06:49:04;108492.97;;;-139.81
8533;BMP280;4304;53.876;10.662;2022-12-07T06:51:32;108405.97;;;-139.81
8533;BMP280;4304;53.876;10.662;2022-12-07T06:54:04;108470.72;;;-139.81
8533;BMP280;4304;53.876;10.662;2022-12-07T06:56:29;108391.81;;;-139.81
8533;BMP280;4304;53.876;10.662;2022-12-07T06:58:54;108351.34;;;-139.81
8533;BMP280;4304;53.876;10.662;2022-12-07T07:01:20;108318.97;;;-139.81
8533;BMP280;4304;53.876;10.662;2022-12-07T07:03:46;108321.00;;;-139.81
8533;BMP280;4304;53.876;10.662;2022-12-07T07:06:12;108424.19;;;-139.81
8533;BMP280;4304;53.876;10.662;2022-12-07T07:08:38;108367.53;;;-139.81
8533;BMP280;4304;53.876;10.662;2022-12-07T07:11:05;108444.41;;;-139.81
8533;BMP280;4304;53.876;10.662;2022-12-07T07:13:30;108448.44;;;-139.81
8533;BMP280;4304;53.876;10.662;2022-12-07T07:16:02;108501.06;;;-139.81
8533;BMP280;4304;53.876;10.662;2022-12-07T07:18:38;108527.38;;;-139.81
8533;BMP280;4304;53.876;10.662;2022-12-07T07:21:04;108357.41;;;-139.81
8533;BMP280;4304;53.876;10.662;2022-12-07T07:23:29;108276.47;;;-139.81
8533;BMP280;4304;53.876;10.662;2022-12-07T07:25:55;108225.91;;;-139.81
8533;BMP280;4304;53.876;10.662;2022-12-07T07:28:25;108318.97;;;-139.81
8533;BMP280;4304;53.876;10.662;2022-12-07T07:30:53;108270.41;;;-139.81
8533;BMP280;4304;53.876;10.662;2022-12-07T07:33:18;108165.19;;;-139.81
8533;BMP280;4304;53.876;10.662;2022-12-07T07:35:43;108195.53;;;-139.81
8533;BMP280;4304;53.876;10.662;2022-12-07T07:38:14;108225.91;;;-139.81
8533;BMP280;4304;53.876;10.662;2022-12-07T07:40:39;108173.28;;;-139.81
8533;BMP280;4304;53.876;10.662;2022-12-07T07:43:04;108205.66;;;-139.81
8533;BMP280;4304;53.876;10.662;2022-12-07T07:45:41;108270.41;;;-139.81
8533;BMP280;4304;53.876;10.662;2022-12-07T07:48:06;108213.75;;;-139.81
8533;BMP280;4304;53.876;10.662;2022-12-07T07:50:31;108242.09;;;-139.81
8533;BMP280;4304;53.876;10.662;2022-12-07T07:52:57;108258.28;;;-139.81
8533;BMP280;4304;53.876;10.662;2022-12-07T07:55:23;108193.53;;;-139.81
8533;BMP280;4304;53.876;10.662;2022-12-07T07:57:48;108258.28;;;-139.81
8533;BMP280;4304;53.876;10.662;2022-12-07T08:00:14;108191.50;;;-139.81
8533;BMP280;4304;53.876;10.662;2022-12-07T08:02:42;108266.34;;;-139.81
8533;BMP280;4304;53.876;10.662;2022-12-07T08:05:08;108258.28;;;-139.81
8533;BMP280;4304;53.876;10.662;2022-12-07T08:07:34;108278.50;;;-139.81
8533;BMP280;4304;53.876;10.662;2022-12-07T08:09:59;108351.34;;;-139.81
8533;BMP280;4304;53.876;10.662;2022-12-07T08:12:24;108408.00;;;-139.81
8533;BMP280;4304;53.876;10.662;2022-12-07T08:14:49;108466.66;;;-139.81
8533;BMP280;4304;53.876;10.662;2022-12-07T08:17:14;108537.47;;;-139.81
8533;BMP280;4304;53.876;10.662;2022-12-07T08:19:40;108505.09;;;-139.81
8533;BMP280;4304;53.876;10.662;2022-12-07T08:22:05;108557.72;;;-139.81
8533;BMP280;4304;53.876;10.662;2022-12-07T08:24:33;108743.88;;;-139.81
8533;BMP280;4304;53.876;10.662;2022-12-07T08:26:58;108802.56;;;-139.81
8533;BMP280;4304;53.876;10.662;2022-12-07T08:29:24;108650.78;;;-139.81
8533;BMP280;4304;53.876;10.662;2022-12-07T08:31:49;108654.84;;;-139.81
8533;BMP280;4304;53.876;10.662;2022-12-07T08:34:14;108711.50;;;-139.81
8533;BMP280;4304;53.876;10.662;2022-12-07T08:36:45;108703.41;;;-139.81
8533;BMP280;4304;53.876;10.662;2022-12-07T08:39:12;108654.84;;;-139.81
8533;BMP280;4304;53.876;10.662;2022-12-07T08:41:37;108662.94;;;-139.81
8533;BMP280;4304;53.876;10.662;2022-12-07T08:44:03;108646.75;;;-139.81
8533;BMP280;4304;53.876;10.662;2022-12-07T08:49:04;108642.69;;;-139.81
8533;BMP280;4304;53.876;10.662;2022-12-07T08:51:30;108675.06;;;-139.81
8533;BMP280;4304;53.876;10.662;2022-12-07T08:53:58;108703.41;;;-139.81
8533;BMP280;4304;53.876;10.662;2022-12-07T08:56:25;108800.53;;;-139.81
8533;BMP280;4304;53.876;10.662;2022-12-07T08:58:51;108841.00;;;-139.81
8533;BMP280;4304;53.876;10.662;2022-12-07T09:01:17;108891.59;;;-139.81
8533;BMP280;4304;53.876;10.662;2022-12-07T09:03:42;108946.25;;;-139.81
8533;BMP280;4304;53.876;10.662;2022-12-07T09:06:07;108897.66;;;-139.81
8533;BMP280;4304;53.876;10.662;2022-12-07T09:08:37;108942.19;;;-139.81
8533;BMP280;4304;53.876;10.662;2022-12-07T09:11:03;108970.53;;;-139.81
8533;BMP280;4304;53.876;10.662;2022-12-07T09:13:29;108921.94;;;-139.81
8533;BMP280;4304;53.876;10.662;2022-12-07T09:15:54;109102.06;;;-139.81
8533;BMP280;4304;53.876;10.662;2022-12-07T09:18:20;109106.13;;;-139.81
8533;BMP280;4304;53.876;10.662;2022-12-07T09:20:56;109294.31;;;-139.81
8533;BMP280;4304;53.876;10.662;2022-12-07T09:23:22;108984.69;;;-139.81
8533;BMP280;4304;53.876;10.662;2022-12-07T09:25:47;109027.19;;;-139.81
8533;BMP280;4304;53.876;10.662;2022-12-07T09:28:13;109004.94;;;-139.81
8533;BMP280;4304;53.876;10.662;2022-12-07T09:30:38;109055.50;;;-139.81
8533;BMP280;4304;53.876;10.662;2022-12-07T09:33:03;109160.75;;;-139.81
8533;BMP280;4304;53.876;10.662;2022-12-07T09:35:28;109174.91;;;-139.81
8533;BMP280;4304;53.876;10.662;2022-12-07T09:37:54;109015.03;;;-139.81
8533;BMP280;4304;53.876;10.662;2022-12-07T09:40:20;109019.09;;;-139.81
8533;BMP280;4304;53.876;10.662;2022-12-07T09:42:52;108998.84;;;-139.81
8533;BMP280;4304;53.876;10.662;2022-12-07T09:45:24;109069.69;;;-139.81
8533;BMP280;4304;53.876;10.662;2022-12-07T09:47:50;109079.81;;;-139.81
8533;BMP280;4304;53.876;10.662;2022-12-07T09:50:23;109049.44;;;-139.81
8533;BMP280;4304;53.876;10.662;2022-12-07T09:52:49;108899.69;;;-139.81
8533;BMP280;4304;53.876;10.662;2022-12-07T09:55:27;108869.34;;;-139.81
8533;BMP280;4304;53.876;10.662;2022-12-07T09:57:53;108828.88;;;-139.81
8533;BMP280;4304;53.876;10.662;2022-12-07T10:00:21;108764.09;;;-139.81
8533;BMP280;4304;53.876;10.662;2022-12-07T10:02:57;108804.59;;;-139.81
8533;BMP280;4304;53.876;10.662;2022-12-07T10:05:30;108887.56;;;-139.81
8533;BMP280;4304;53.876;10.662;2022-12-07T10:07:55;108776.25;;;-139.81
8533;BMP280;4304;53.876;10.662;2022-12-07T10:10:31;108802.56;;;-139.81
8533;BMP280;4304;53.876;10.662;2022-12-07T10:15:56;108841.00;;;-139.81
8533;BMP280;4304;53.876;10.662;2022-12-07T10:23:40;108891.59;;;-139.81
8533;BMP280;4304;53.876;10.662;2022-12-07T10:26:25;108940.16;;;-139.81
8533;BMP280;4304;53.876;10.662;2022-12-07T10:28:51;108887.56;;;-139.81
8533;BMP280;4304;53.876;10.662;2022-12-07T10:31:19;109006.94;;;-139.81
8533;BMP280;4304;53.876;10.662;2022-12-07T10:36:36;108968.50;;;-139.81
8533;BMP280;4304;53.876;10.662;2022-12-07T10:39:11;108873.38;;;-139.81
8533;BMP280;4304;53.876;10.662;2022-12-07T10:42:02;108936.13;;;-139.81
8533;BMP280;4304;53.876;10.662;2022-12-07T10:44:32;109023.13;;;-139.81
8533;BMP280;4304;53.876;10.662;2022-12-07T10:58:27;109312.53;;;-139.81
8533;BMP280;4304;53.876;10.662;2022-12-07T11:11:26;109342.91;;;-139.81
8533;BMP280;4304;53.876;10.662;2022-12-07T11:14:21;109286.22;;;-139.81
8533;BMP280;4304;53.876;10.662;2022-12-07T11:20:11;109322.66;;;-139.81
8533;BMP280;4304;53.876;10.662;2022-12-07T11:22:47;109251.81;;;-139.81
8533;BMP280;4304;53.876;10.662;2022-12-07T11:28:27;109276.13;;;-139.81
8533;BMP280;4304;53.876;10.662;2022-12-07T11:31:31;109419.81;;;-139.81
8533;BMP280;4304;53.876;10.662;2022-12-07T11:34:23;109128.38;;;-139.81
8533;BMP280;4304;53.876;10.662;2022-12-07T11:36:52;109312.53;;;-139.81
8533;BMP280;4304;53.876;10.662;2022-12-07T11:41:48;109189.09;;;-139.81
8533;BMP280;4304;53.876;10.662;2022-12-07T11:52:16;108938.16;;;-139.81
8533;BMP280;4304;53.876;10.662;2022-12-07T11:54:43;108861.25;;;-139.81
8533;BMP280;4304;53.876;10.662;2022-12-07T11:57:19;108873.38;;;-139.81
8533;BMP280;4304;53.876;10.662;2022-12-07T11:59:52;108897.66;;;-139.81
8533;BMP280;4304;53.876;10.662;2022-12-07T12:02:28;108820.78;;;-139.81
8533;BMP280;4304;53.876;10.662;2022-12-07T12:05:16;108905.75;;;-139.81
8533;BMP280;4304;53.876;10.662;2022-12-07T12:07:44;108796.50;;;-139.81
8533;BMP280;4304;53.876;10.662;2022-12-07T12:10:55;108782.31;;;-139.81
8533;BMP280;4304;53.876;10.662;2022-12-07T12:16:08;108814.69;;;-139.81
8533;BMP280;4304;53.876;10.662;2022-12-07T12:18:40;108768.16;;;-139.81
8533;BMP280;4304;53.876;10.662;2022-12-07T12:21:12;108897.66;;;-139.81
8533;BMP280;4304;53.876;10.662;2022-12-07T12:26:14;108606.28;;;-139.81
8533;BMP280;4304;53.876;10.662;2022-12-07T12:28:54;108630.56;;;-139.81
8533;BMP280;4304;53.876;10.662;2022-12-07T12:33:49;108614.38;;;-139.81
8533;BMP280;4304;53.876;10.662;2022-12-07T12:51:47;108543.56;;;-139.81
8533;BMP280;4304;53.876;10.662;2022-12-07T12:54:18;108618.41;;;-139.81
8533;BMP280;4304;53.876;10.662;2022-12-07T13:01:47;108462.63;;;-139.81
8533;BMP280;4304;53.876;10.662;2022-12-07T13:04:17;108505.09;;;-139.81
8533;BMP280;4304;53.876;10.662;2022-12-07T13:06:43;108300.75;;;-139.81
8533;BMP280;4304;53.876;10.662;2022-12-07T13:09:31;108343.25;;;-139.81
8533;BMP280;4304;53.876;10.662;2022-12-07T13:12:05;108327.06;;;-139.81
8533;BMP280;4304;53.876;10.662;2022-12-07T13:17:03;108327.06;;;-139.81
8533;BMP280;4304;53.876;10.662;2022-12-07T13:27:55;108258.28;;;-139.81
8533;BMP280;4304;53.876;10.662;2022-12-07T13:30:22;108112.59;;;-139.81
8533;BMP280;4304;53.876;10.662;2022-12-07T13:32:55;108288.63;;;-139.81
8533;BMP280;4304;53.876;10.662;2022-12-07T13:35:28;108294.69;;;-139.81
8533;BMP280;4304;53.876;10.662;2022-12-07T13:38:04;108197.56;;;-139.81
8533;BMP280;4304;53.876;10.662;2022-12-07T13:40:30;108209.72;;;-139.81
8533;BMP280;4304;53.876;10.662;2022-12-07T13:43:01;108227.91;;;-139.81
8533;BMP280;4304;53.876;10.662;2022-12-07T13:45:29;108124.75;;;-139.81
8533;BMP280;4304;53.876;10.662;2022-12-07T13:47:57;108185.44;;;-139.81
8533;BMP280;4304;53.876;10.662;2022-12-07T13:50:25;108051.91;;;-139.81
8533;BMP280;4304;53.876;10.662;2022-12-07T13:52:55;108049.88;;;-139.81
8533;BMP280;4304;53.876;10.662;2022-12-07T13:55:20;108086.31;;;-139.81
8533;BMP280;4304;53.876;10.662;2022-12-07T13:57:52;108076.19;;;-139.81
8533;BMP280;4304;53.876;10.662;2022-12-07T14:00:19;108015.50;;;-139.81
8533;BMP280;4304;53.876;10.662;2022-12-07T14:05:39;107946.72;;;-139.81
8533;BMP280;4304;53.876;10.662;2022-12-07T14:08:25;108039.78;;;-139.81
8533;BMP280;4304;53.876;10.662;2022-12-07T14:10:58;107958.84;;;-139.81
8533;BMP280;4304;53.876;10.662;2022-12-07T14:14:01;107970.97;;;-139.81
8533;BMP280;4304;53.876;10.662;2022-12-07T14:16:34;107918.38;;;-139.81
8533;BMP280;4304;53.876;10.662;2022-12-07T14:19:04;107950.75;;;-139.81
8533;BMP280;4304;53.876;10.662;2022-12-07T14:21:32;107904.22;;;-139.81
8533;BMP280;4304;53.876;10.662;2022-12-07T14:24:19;107938.63;;;-139.81
8533;BMP280;4304;53.876;10.662;2022-12-07T14:26:47;107932.56;;;-139.81
8533;BMP280;4304;53.876;10.662;2022-12-07T14:29:20;107770.72;;;-139.81
8533;BMP280;4304;53.876;10.662;2022-12-07T14:31:48;107825.34;;;-139.81
8533;BMP280;4304;53.876;10.662;2022-12-07T14:34:13;107750.50;;;-139.81
8533;BMP280;4304;53.876;10.662;2022-12-07T14:36:39;107655.41;;;-139.81
8533;BMP280;4304;53.876;10.662;2022-12-07T14:39:11;107722.16;;;-139.81
8533;BMP280;4304;53.876;10.662;2022-12-07T14:41:37;107623.06;;;-139.81
8533;BMP280;4304;53.876;10.662;2022-12-07T14:44:11;107754.53;;;-139.81
8533;BMP280;4304;53.876;10.662;2022-12-07T14:46:37;107511.81;;;-139.81
8533;BMP280;4304;53.876;10.662;2022-12-07T14:49:02;107443.03;;;-139.81
8533;BMP280;4304;53.876;10.662;2022-12-07T14:51:30;107580.56;;;-139.81
8533;BMP280;4304;53.876;10.662;2022-12-07T14:53:56;107453.16;;;-139.81
8533;BMP280;4304;53.876;10.662;2022-12-07T14:56:21;107392.47;;;-139.81
8533;BMP280;4304;53.876;10.662;2022-12-07T14:58:46;107356.06;;;-139.81
8533;BMP280;4304;53.876;10.662;2022-12-07T15:01:12;107447.06;;;-139.81
8533;BMP280;4304;53.876;10.662;2022-12-07T15:03:37;107374.25;;;-139.81
8533;BMP280;4304;53.876;10.662;2022-12-07T15:06:04;107378.31;;;-139.81
8533;BMP280;4304;53.876;10.662;2022-12-07T15:08:29;107315.59;;;-139.81
8533;BMP280;4304;53.876;10.662;2022-12-07T15:10:55;107297.41;;;-139.81
8533;BMP280;4304;53.876;10.662;2022-12-07T15:13:21;107329.75;;;-139.81
8533;BMP280;4304;53.876;10.662;2022-12-07T15:15:47;107295.38;;;-139.81
8533;BMP280;4304;53.876;10.662;2022-12-07T15:18:14;107246.84;;;-139.81
8533;BMP280;4304;53.876;10.662;2022-12-07T15:20:39;107216.50;;;-139.81
8533;BMP280;4304;53.876;10.662;2022-12-07T15:23:04;107244.81;;;-139.81
8533;BMP280;4304;53.876;10.662;2022-12-07T15:25:30;107206.38;;;-139.81
8533;BMP280;4304;53.876;10.662;2022-12-07T15:27:55;107226.63;;;-139.81
8533;BMP280;4304;53.876;10.662;2022-12-07T15:30:20;107178.06;;;-139.81
8533;BMP280;4304;53.876;10.662;2022-12-07T15:32:49;107214.47;;;-139.81
8533;BMP280;4304;53.876;10.662;2022-12-07T15:35:15;107141.69;;;-139.81
8533;BMP280;4304;53.876;10.662;2022-12-07T15:37:40;107095.16;;;-139.81
8533;BMP280;4304;53.876;10.662;2022-12-07T15:40:06;107109.31;;;-139.81
8533;BMP280;4304;53.876;10.662;2022-12-07T15:42:31;107186.16;;;-139.81
8533;BMP280;4304;53.876;10.662;2022-12-07T15:44:56;107149.75;;;-139.81
8533;BMP280;4304;53.876;10.662;2022-12-07T15:47:22;107143.69;;;-139.81
8533;BMP280;4304;53.876;10.662;2022-12-07T15:49:47;107133.59;;;-139.81
8533;BMP280;4304;53.876;10.662;2022-12-07T15:52:12;107074.94;;;-139.81
8533;BMP280;4304;53.876;10.662;2022-12-07T15:54:39;107145.72;;;-139.81
8533;BMP280;4304;53.876;10.662;2022-12-07T15:57:04;107056.72;;;-139.81
8533;BMP280;4304;53.876;10.662;2022-12-07T15:59:30;107089.09;;;-139.81
8533;BMP280;4304;53.876;10.662;2022-12-07T16:01:55;106998.09;;;-139.81